Time;durP1;ratioP1;P1;durP2;ratioP2;P2;SDS_P1;SDS_P2;PMS_P1;PMS_P2;Temp;Humidity;BMP_temperature;BMP_pressure;BME280_temperature;BME280_humidity;BME280_pressure;Samples;Min_cycle;Max_cycle;Signal;HPM_P1;HPM_P2
2023/08/08 03:02:08;;;;;;;;;;;14.50;99.90;;;;;;5214474;23;20080;-76
2023/08/08 03:04:33;;;;;;;;;;;14.40;99.90;;;;;;4959640;28;19969;-76
2023/08/08 03:07:02;;;;;;;;;;;14.40;99.90;;;;;;4959787;28;19922;-77
2023/08/08 03:09:27;;;;;;;;;;;14.30;99.90;;;;;;4959430;28;19926;-75
2023/08/08 03:11:53;;;;;;;;;;;14.30;99.90;;;;;;4972373;28;19960;-76
2023/08/08 03:14:18;;;;;;;;;;;14.30;99.90;;;;;;4978710;28;19922;-77
2023/08/08 03:16:44;;;;;;;;;;;14.30;99.90;;;;;;4978912;28;20072;-76
2023/08/08 03:19:10;;;;;;;;;;;14.30;99.90;;;;;;4978587;28;20464;-76
2023/08/08 03:21:35;;;;;;;;;;;14.30;99.90;;;;;;4978798;28;20277;-76
2023/08/08 03:24:01;;;;;;;;;;;14.30;99.90;;;;;;4995909;28;19922;-76
2023/08/08 03:26:26;;;;;;;;;;;14.20;99.90;;;;;;4978537;28;19922;-76
2023/08/08 03:28:53;;;;;;;;;;;14.20;99.90;;;;;;4978357;28;19925;-77
2023/08/08 03:31:19;;;;;;;;;;;14.20;99.90;;;;;;4978306;28;19926;-76
2023/08/08 03:33:44;;;;;;;;;;;14.20;99.90;;;;;;4978293;28;19926;-77
2023/08/08 03:36:10;;;;;;;;;;;14.20;99.90;;;;;;4978670;28;19922;-75
2023/08/08 03:38:37;;;;;;;;;;;14.20;99.90;;;;;;4978570;28;20329;-77
2023/08/08 03:41:03;;;;;;;;;;;14.10;99.90;;;;;;4961986;28;19922;-77
2023/08/08 03:43:29;;;;;;;;;;;14.10;99.90;;;;;;4995552;28;20258;-76
2023/08/08 03:45:54;;;;;;;;;;;14.10;99.90;;;;;;4978173;28;19926;-77
2023/08/08 03:48:20;;;;;;;;;;;14.10;99.90;;;;;;4978018;28;20270;-77
2023/08/08 03:50:46;;;;;;;;;;;14.10;99.90;;;;;;4961923;28;20274;-76
2023/08/08 03:53:12;;;;;;;;;;;14.10;99.90;;;;;;4978196;28;19943;-77
2023/08/08 03:55:37;;;;;;;;;;;14.10;99.90;;;;;;4978151;28;20373;-77
2023/08/08 03:58:03;;;;;;;;;;;14.00;99.90;;;;;;4961732;28;19922;-77
2023/08/08 04:00:28;;;;;;;;;;;14.00;99.90;;;;;;4977694;28;19921;-76
2023/08/08 04:02:54;;;;;;;;;;;14.00;99.90;;;;;;4977742;28;19979;-77
2023/08/08 04:05:20;;;;;;;;;;;14.00;99.90;;;;;;4977969;28;19922;-76
2023/08/08 04:07:45;;;;;;;;;;;14.00;99.90;;;;;;4977672;28;19926;-77
2023/08/08 04:10:11;;;;;;;;;;;14.00;99.90;;;;;;4977579;28;20061;-77
2023/08/08 04:12:37;;;;;;;;;;;14.00;99.90;;;;;;4995047;28;19976;-78
2023/08/08 04:15:02;;;;;;;;;;;14.00;99.90;;;;;;4995092;28;19929;-77
2023/08/08 04:17:28;;;;;;;;;;;14.00;99.90;;;;;;4976520;28;19946;-77
2023/08/08 04:19:54;;;;;;;;;;;14.00;99.90;;;;;;4994645;28;19923;-77
2023/08/08 04:22:20;;;;;;;;;;;14.00;99.90;;;;;;4977617;28;19965;-77
2023/08/08 04:24:45;;;;;;;;;;;14.00;99.90;;;;;;4978293;28;20269;-77
2023/08/08 04:27:11;;;;;;;;;;;14.10;99.90;;;;;;4977285;28;20392;-76
2023/08/08 04:29:36;;;;;;;;;;;14.10;99.90;;;;;;4977478;28;19932;-76
2023/08/08 04:32:02;;;;;;;;;;;14.20;99.90;;;;;;4977619;28;20322;-77
2023/08/08 04:34:27;;;;;;;;;;;14.20;99.90;;;;;;4977839;28;19922;-76
2023/08/08 04:36:53;;;;;;;;;;;14.20;99.90;;;;;;4977298;28;19972;-77
2023/08/08 04:39:18;;;;;;;;;;;14.20;99.90;;;;;;4977508;28;20072;-75
2023/08/08 04:41:44;;;;;;;;;;;14.20;99.90;;;;;;4977118;28;19926;-74
2023/08/08 04:44:09;;;;;;;;;;;14.20;99.90;;;;;;4977419;28;19922;-80
2023/08/08 04:46:35;;;;;;;;;;;14.20;99.90;;;;;;4977443;28;19985;-77
2023/08/08 04:49:00;;;;;;;;;;;14.20;99.90;;;;;;4994415;28;20025;-77
2023/08/08 04:51:26;;;;;;;;;;;14.20;99.90;;;;;;4977395;28;20005;-76
2023/08/08 04:53:51;;;;;;;;;;;14.20;99.90;;;;;;4977511;28;19921;-76
2023/08/08 04:56:17;;;;;;;;;;;14.20;99.90;;;;;;4977630;28;19932;-78
2023/08/08 04:58:42;;;;;;;;;;;14.20;99.90;;;;;;4994549;28;19921;-77
2023/08/08 05:01:11;;;;;;;;;;;14.20;99.90;;;;;;4994447;28;20257;-76
2023/08/08 05:03:37;;;;;;;;;;;14.10;99.90;;;;;;4994600;28;19934;-76
2023/08/08 05:06:03;;;;;;;;;;;14.10;99.90;;;;;;4976935;28;19922;-77
2023/08/08 05:08:28;;;;;;;;;;;14.00;99.90;;;;;;4976923;28;19933;-77
2023/08/08 05:10:54;;;;;;;;;;;13.90;99.90;;;;;;4994486;28;20292;-77
2023/08/08 05:13:19;;;;;;;;;;;13.90;99.90;;;;;;4977463;28;20000;-76
2023/08/08 05:15:45;;;;;;;;;;;13.80;99.90;;;;;;4994505;28;19929;-76
2023/08/08 05:18:10;;;;;;;;;;;13.70;99.90;;;;;;4977101;28;19921;-77
2023/08/08 05:20:36;;;;;;;;;;;13.70;99.90;;;;;;4977064;28;20361;-77
2023/08/08 05:23:01;;;;;;;;;;;13.60;99.90;;;;;;4994067;28;19929;-77
2023/08/08 05:25:27;;;;;;;;;;;13.60;99.90;;;;;;4976703;28;19922;-77
2023/08/08 05:27:53;;;;;;;;;;;13.60;99.90;;;;;;4976934;28;19925;-76
2023/08/08 05:30:18;;;;;;;;;;;13.50;99.90;;;;;;4977213;28;19993;-76
2023/08/08 05:32:44;;;;;;;;;;;13.50;99.90;;;;;;4994323;28;20353;-76
2023/08/08 05:35:10;;;;;;;;;;;13.50;99.90;;;;;;4978420;28;20278;-76
2023/08/08 05:37:35;;;;;;;;;;;13.50;99.90;;;;;;4980980;28;19926;-76
2023/08/08 05:40:01;;;;;;;;;;;13.50;99.90;;;;;;4980616;28;20381;-76
2023/08/08 05:42:26;;;;;;;;;;;13.50;99.90;;;;;;4980606;28;19932;-77
2023/08/08 05:44:52;;;;;;;;;;;13.50;99.90;;;;;;4980590;28;19928;-74
2023/08/08 05:47:17;;;;;;;;;;;13.60;99.90;;;;;;4981101;28;20417;-77
2023/08/08 05:49:43;;;;;;;;;;;13.70;99.90;;;;;;4981068;28;19925;-76
2023/08/08 05:52:08;;;;;;;;;;;13.70;99.90;;;;;;4997721;28;19922;-77
2023/08/08 05:54:34;;;;;;;;;;;13.80;99.90;;;;;;4997619;28;19925;-76
2023/08/08 05:57:00;;;;;;;;;;;13.90;99.90;;;;;;4980950;28;19928;-77
2023/08/08 05:59:25;;;;;;;;;;;14.00;99.90;;;;;;4997506;28;20289;-77
2023/08/08 06:01:51;;;;;;;;;;;14.00;99.90;;;;;;4997726;28;19973;-76
2023/08/08 06:04:17;;;;;;;;;;;14.10;99.90;;;;;;4980610;28;20023;-76
2023/08/08 06:06:43;;;;;;;;;;;14.10;99.90;;;;;;4980575;28;19984;-78
2023/08/08 06:09:11;;;;;;;;;;;14.20;99.90;;;;;;4997460;28;19932;-77
2023/08/08 06:11:36;;;;;;;;;;;14.30;99.90;;;;;;4980076;28;19921;-76
2023/08/08 06:14:02;;;;;;;;;;;14.40;99.90;;;;;;4979832;28;20032;-77
2023/08/08 06:16:28;;;;;;;;;;;14.40;99.90;;;;;;4997268;28;20364;-78
2023/08/08 06:18:53;;;;;;;;;;;14.50;99.90;;;;;;4979792;28;20009;-77
2023/08/08 06:21:19;;;;;;;;;;;14.60;99.90;;;;;;4979744;28;19989;-77
2023/08/08 06:23:44;;;;;;;;;;;14.70;99.90;;;;;;4997349;28;20282;-76
2023/08/08 06:26:10;;;;;;;;;;;14.80;99.90;;;;;;4979850;28;20306;-77
2023/08/08 06:28:36;;;;;;;;;;;14.90;99.90;;;;;;4979514;28;20467;-79
2023/08/08 06:31:02;;;;;;;;;;;14.90;99.90;;;;;;4979371;28;19922;-73
2023/08/08 06:33:28;;;;;;;;;;;14.90;99.90;;;;;;4979416;28;19922;-77
2023/08/08 06:35:54;;;;;;;;;;;14.90;99.90;;;;;;4979414;28;19922;-78
2023/08/08 06:38:19;;;;;;;;;;;14.90;99.90;;;;;;4979387;28;19922;-76
2023/08/08 06:40:45;;;;;;;;;;;15.00;99.90;;;;;;4979358;28;19928;-78
2023/08/08 06:43:10;;;;;;;;;;;15.00;99.90;;;;;;4979798;28;19944;-77
2023/08/08 06:45:36;;;;;;;;;;;15.00;99.90;;;;;;4995813;28;20388;-74
2023/08/08 06:48:02;;;;;;;;;;;15.00;99.90;;;;;;4978691;28;19932;-77
2023/08/08 06:50:28;;;;;;;;;;;15.10;99.90;;;;;;4979403;28;19977;-75
2023/08/08 06:52:53;;;;;;;;;;;15.10;99.90;;;;;;4979433;28;20326;-75
2023/08/08 06:55:19;;;;;;;;;;;15.20;99.90;;;;;;4979329;28;19973;-74
2023/08/08 06:57:44;;;;;;;;;;;15.30;99.90;;;;;;4996741;28;20367;-77
2023/08/08 07:00:12;;;;;;;;;;;15.30;99.90;;;;;;4978996;28;20008;-76
2023/08/08 07:02:37;;;;;;;;;;;15.30;99.90;;;;;;4997598;28;19937;-73
2023/08/08 07:05:03;;;;;;;;;;;15.40;99.90;;;;;;4996429;28;19926;-76
2023/08/08 07:07:30;;;;;;;;;;;15.40;99.90;;;;;;4978830;28;19922;-76
2023/08/08 07:09:56;;;;;;;;;;;15.40;99.90;;;;;;4962712;28;19929;-76
2023/08/08 07:12:21;;;;;;;;;;;15.50;99.90;;;;;;4979415;28;19921;-76
2023/08/08 07:14:47;;;;;;;;;;;15.60;99.90;;;;;;4962862;28;19969;-71
2023/08/08 07:17:12;;;;;;;;;;;15.60;99.90;;;;;;4978675;28;19977;-77
2023/08/08 07:19:38;;;;;;;;;;;15.70;99.90;;;;;;4978607;28;19922;-73
2023/08/08 07:22:03;;;;;;;;;;;15.80;99.90;;;;;;4995887;28;19922;-75
2023/08/08 07:24:29;;;;;;;;;;;15.90;99.90;;;;;;4978559;28;19922;-76
2023/08/08 07:26:55;;;;;;;;;;;16.00;99.90;;;;;;4979170;28;19926;-78
2023/08/08 07:29:21;;;;;;;;;;;16.10;99.90;;;;;;4978324;28;20370;-75
2023/08/08 07:31:46;;;;;;;;;;;16.10;99.90;;;;;;4978385;28;19969;-76
2023/08/08 07:34:12;;;;;;;;;;;16.20;99.90;;;;;;4978653;28;20344;-76
2023/08/08 07:36:37;;;;;;;;;;;16.20;99.90;;;;;;4978593;28;19928;-77
2023/08/08 07:39:03;;;;;;;;;;;16.10;99.90;;;;;;4978565;28;19922;-76
2023/08/08 07:41:29;;;;;;;;;;;16.10;99.90;;;;;;4978428;28;19922;-76
2023/08/08 07:43:55;;;;;;;;;;;16.00;99.90;;;;;;4978144;28;20388;-76
2023/08/08 07:46:20;;;;;;;;;;;16.10;99.90;;;;;;4978538;28;19928;-77
2023/08/08 07:48:46;;;;;;;;;;;16.00;99.90;;;;;;4977945;28;19930;-77
2023/08/08 07:51:11;;;;;;;;;;;16.10;99.90;;;;;;4977916;28;20009;-76
2023/08/08 07:53:37;;;;;;;;;;;16.10;99.90;;;;;;4995433;28;20049;-76
2023/08/08 07:56:02;;;;;;;;;;;16.10;99.90;;;;;;4978008;28;19965;-78
2023/08/08 07:58:28;;;;;;;;;;;16.10;99.90;;;;;;4977488;28;20338;-73
2023/08/08 08:00:53;;;;;;;;;;;16.20;99.90;;;;;;4994757;28;19929;-75
2023/08/08 08:03:19;;;;;;;;;;;16.20;99.90;;;;;;4977720;28;19945;-76
2023/08/08 08:05:45;;;;;;;;;;;16.20;99.90;;;;;;4977634;28;19925;-77
2023/08/08 08:08:11;;;;;;;;;;;16.20;99.90;;;;;;4977712;28;19925;-76
2023/08/08 08:10:36;;;;;;;;;;;16.20;99.90;;;;;;4961746;28;20365;-75
2023/08/08 08:13:02;;;;;;;;;;;16.20;99.90;;;;;;4994842;28;19974;-77
2023/08/08 08:15:28;;;;;;;;;;;16.30;99.90;;;;;;4994876;28;19921;-77
2023/08/08 08:17:53;;;;;;;;;;;16.30;99.90;;;;;;4977785;28;19929;-75
2023/08/08 08:20:19;;;;;;;;;;;16.30;99.90;;;;;;4977395;28;20377;-76
2023/08/08 08:22:44;;;;;;;;;;;16.30;99.90;;;;;;4977716;28;19932;-76
2023/08/08 08:25:10;;;;;;;;;;;16.40;99.90;;;;;;4977723;28;19944;-75
2023/08/08 08:27:36;;;;;;;;;;;16.40;99.90;;;;;;4961778;28;20258;-78
2023/08/08 08:30:03;;;;;;;;;;;16.40;99.90;;;;;;4994842;28;19929;-77
2023/08/08 08:32:31;;;;;;;;;;;16.40;99.90;;;;;;4995219;28;19928;-74
2023/08/08 08:34:57;;;;;;;;;;;16.40;99.90;;;;;;4995136;28;19964;-75
2023/08/08 08:37:22;;;;;;;;;;;16.40;99.90;;;;;;4961555;28;20378;-75
2023/08/08 08:39:48;;;;;;;;;;;16.40;99.90;;;;;;4994598;28;19969;-72
2023/08/08 08:42:14;;;;;;;;;;;16.30;99.90;;;;;;4994648;28;20057;-75
2023/08/08 08:44:40;;;;;;;;;;;16.30;99.90;;;;;;4977102;28;19922;-73
2023/08/08 08:47:11;;;;;;;;;;;16.40;99.90;;;;;;4961459;28;19921;-76
2023/08/08 08:49:37;;;;;;;;;;;16.50;99.90;;;;;;4977131;28;19926;-75
2023/08/08 08:52:04;;;;;;;;;;;16.50;99.90;;;;;;4977388;28;19969;-76
2023/08/08 08:54:31;;;;;;;;;;;16.50;99.90;;;;;;4994493;28;19973;-77
2023/08/08 08:56:57;;;;;;;;;;;16.60;99.90;;;;;;4994859;28;19977;-75
2023/08/08 08:59:23;;;;;;;;;;;16.60;99.90;;;;;;4977006;28;19922;-75
2023/08/08 09:01:49;;;;;;;;;;;16.70;99.90;;;;;;4994200;28;19928;-76
2023/08/08 09:04:16;;;;;;;;;;;16.70;99.90;;;;;;4977187;28;20373;-75
2023/08/08 09:06:42;;;;;;;;;;;16.70;99.90;;;;;;4977193;28;20389;-73
2023/08/08 09:09:08;;;;;;;;;;;16.70;99.90;;;;;;4977097;28;19933;-76
2023/08/08 09:11:34;;;;;;;;;;;16.60;99.90;;;;;;4980878;28;20001;-74
2023/08/08 09:14:00;;;;;;;;;;;16.60;99.90;;;;;;4998361;28;19961;-75
2023/08/08 09:16:25;;;;;;;;;;;16.60;99.90;;;;;;4998418;28;19926;-75
2023/08/08 09:18:52;;;;;;;;;;;16.60;99.90;;;;;;4980696;28;19969;-74
2023/08/08 09:21:18;;;;;;;;;;;16.70;99.90;;;;;;4998134;28;20456;-74
2023/08/08 09:23:44;;;;;;;;;;;16.80;99.90;;;;;;4998234;28;20017;-75
2023/08/08 09:26:10;;;;;;;;;;;16.80;99.90;;;;;;4980576;28;19961;-78
2023/08/08 09:28:35;;;;;;;;;;;16.80;99.90;;;;;;4980726;28;20368;-76
2023/08/08 09:31:04;;;;;;;;;;;16.90;99.90;;;;;;4980751;28;20009;-76
2023/08/08 09:33:30;;;;;;;;;;;16.90;99.90;;;;;;4980517;28;19929;-77
2023/08/08 09:35:55;;;;;;;;;;;17.00;99.90;;;;;;4964475;28;19926;-77
2023/08/08 09:38:21;;;;;;;;;;;17.00;99.90;;;;;;4980452;28;19922;-77
2023/08/08 09:40:46;;;;;;;;;;;16.90;99.90;;;;;;4998195;28;19921;-76
2023/08/08 09:43:12;;;;;;;;;;;16.90;99.90;;;;;;4980372;28;19973;-75
2023/08/08 09:45:38;;;;;;;;;;;17.00;99.90;;;;;;4964588;28;19950;-75
2023/08/08 09:48:05;;;;;;;;;;;17.10;99.90;;;;;;4980440;28;19925;-76
2023/08/08 09:50:32;;;;;;;;;;;17.30;99.90;;;;;;4980115;28;19930;-76
2023/08/08 09:52:58;;;;;;;;;;;17.50;99.90;;;;;;4980126;28;19977;-75
2023/08/08 09:55:24;;;;;;;;;;;17.70;99.90;;;;;;4980023;28;19922;-75
2023/08/08 09:57:50;;;;;;;;;;;17.60;99.90;;;;;;4980321;28;19944;-75
2023/08/08 10:00:16;;;;;;;;;;;17.60;99.90;;;;;;4980035;28;19922;-74
2023/08/08 10:02:43;;;;;;;;;;;17.50;99.90;;;;;;4979889;28;19922;-75
2023/08/08 10:05:09;;;;;;;;;;;17.50;99.90;;;;;;4979800;28;19922;-76
2023/08/08 10:07:35;;;;;;;;;;;17.50;99.90;;;;;;4963667;28;19925;-75
2023/08/08 10:10:00;;;;;;;;;;;17.40;99.90;;;;;;4979906;28;19954;-74
2023/08/08 10:12:26;;;;;;;;;;;17.50;99.90;;;;;;4979575;28;19925;-75
2023/08/08 10:14:51;;;;;;;;;;;17.60;99.90;;;;;;4979566;28;19922;-73
2023/08/08 10:17:18;;;;;;;;;;;17.70;99.90;;;;;;4980636;28;19926;-74
2023/08/08 10:19:51;;;;;;;;;;;17.70;99.90;;;;;;4997082;28;20012;-74
2023/08/08 10:22:19;;;;;;;;;;;17.50;99.90;;;;;;4996811;28;19929;-73
2023/08/08 10:24:47;;;;;;;;;;;17.30;99.90;;;;;;4980561;28;20277;-75
2023/08/08 10:27:15;;;;;;;;;;;17.20;99.90;;;;;;4979807;28;20282;-75
2023/08/08 10:29:40;;;;;;;;;;;17.10;99.90;;;;;;4979454;28;19926;-73
2023/08/08 10:32:07;;;;;;;;;;;17.10;99.90;;;;;;4979421;28;19929;-75
2023/08/08 10:34:42;;;;;;;;;;;17.20;99.90;;;;;;4979405;28;20369;-76
2023/08/08 10:37:12;;;;;;;;;;;17.30;99.90;;;;;;4963392;28;19922;-74
2023/08/08 10:39:38;;;;;;;;;;;17.50;99.90;;;;;;4997290;28;19929;-77
2023/08/08 10:42:04;;;;;;;;;;;17.60;99.90;;;;;;4979416;28;19922;-74
2023/08/08 10:44:30;;;;;;;;;;;17.80;99.90;;;;;;4996682;28;19922;-76
2023/08/08 10:46:56;;;;;;;;;;;17.90;99.90;;;;;;4979975;28;19922;-74
2023/08/08 10:49:21;;;;;;;;;;;18.10;99.90;;;;;;4979128;28;19926;-75
2023/08/08 10:51:48;;;;;;;;;;;18.10;99.90;;;;;;4978880;28;19921;-75
2023/08/08 10:54:23;;;;;;;;;;;18.20;99.90;;;;;;4979295;28;19976;-77
2023/08/08 10:56:51;;;;;;;;;;;18.30;99.90;;;;;;4962783;28;20441;-77
2023/08/08 10:59:18;;;;;;;;;;;18.40;99.90;;;;;;4996377;28;19926;-76
2023/08/08 11:01:49;;;;;;;;;;;18.50;99.90;;;;;;4996264;28;19922;-74
2023/08/08 11:04:15;;;;;;;;;;;18.70;99.90;;;;;;4979106;28;19922;-75
2023/08/08 11:06:41;;;;;;;;;;;18.90;99.90;;;;;;4996465;28;19925;-76
2023/08/08 11:09:07;;;;;;;;;;;19.00;99.90;;;;;;4979076;28;20270;-76
2023/08/08 11:11:39;;;;;;;;;;;18.70;99.90;;;;;;4978691;28;20012;-76
2023/08/08 11:14:09;;;;;;;;;;;18.90;99.90;;;;;;4978931;28;20384;-77
2023/08/08 11:16:34;;;;;;;;;;;18.80;99.90;;;;;;4978649;28;19925;-76
2023/08/08 11:19:00;;;;;;;;;;;18.90;99.90;;;;;;4978644;28;19973;-75
2023/08/08 11:21:25;;;;;;;;;;;19.00;99.90;;;;;;4978782;28;19926;-76
2023/08/08 11:23:51;;;;;;;;;;;18.80;99.90;;;;;;4978875;28;20400;-76
2023/08/08 11:26:17;;;;;;;;;;;18.90;99.90;;;;;;4978787;28;19964;-76
2023/08/08 11:28:48;;;;;;;;;;;18.70;99.90;;;;;;4978339;28;19926;-76
2023/08/08 11:31:14;;;;;;;;;;;18.60;99.90;;;;;;4978288;28;19973;-80
2023/08/08 11:33:40;;;;;;;;;;;18.40;99.90;;;;;;4977633;28;19926;-75
2023/08/08 11:36:05;;;;;;;;;;;18.30;99.90;;;;;;4978285;28;19978;-74
2023/08/08 11:38:33;;;;;;;;;;;18.30;99.90;;;;;;4978349;28;19922;-77
2023/08/08 11:40:59;;;;;;;;;;;18.40;99.90;;;;;;4962336;28;20294;-76
2023/08/08 11:43:24;;;;;;;;;;;18.40;99.90;;;;;;4996022;28;19921;-76
2023/08/08 11:45:51;;;;;;;;;;;18.40;99.90;;;;;;4978115;28;20433;-72
2023/08/08 11:48:20;;;;;;;;;;;18.40;99.90;;;;;;4995676;28;19976;-77
2023/08/08 11:50:46;;;;;;;;;;;18.50;99.90;;;;;;4977913;28;19925;-72
2023/08/08 11:53:12;;;;;;;;;;;18.50;99.90;;;;;;4995612;28;20001;-73
2023/08/08 11:55:37;;;;;;;;;;;18.50;99.90;;;;;;4995719;28;20346;-81
2023/08/08 11:58:05;;;;;;;;;;;18.70;99.90;;;;;;4977962;28;20313;-76
2023/08/08 12:00:30;;;;;;;;;;;18.70;99.90;;;;;;4977695;28;19922;-78
2023/08/08 12:02:57;;;;;;;;;;;18.70;99.90;;;;;;4977874;28;19921;-74
2023/08/08 12:05:23;;;;;;;;;;;18.70;99.90;;;;;;4978794;28;19926;-74
2023/08/08 12:07:49;;;;;;;;;;;18.70;99.90;;;;;;4977876;28;20348;-74
2023/08/08 12:10:17;;;;;;;;;;;18.70;99.90;;;;;;4994999;28;19949;-75
2023/08/08 12:12:43;;;;;;;;;;;18.70;99.90;;;;;;4977542;28;20373;-73
2023/08/08 12:15:09;;;;;;;;;;;18.60;99.90;;;;;;4977617;28;19937;-76
2023/08/08 12:17:35;;;;;;;;;;;18.60;99.90;;;;;;4978410;28;20062;-73
2023/08/08 12:20:03;;;;;;;;;;;18.60;99.90;;;;;;4977880;28;20373;-76
2023/08/08 12:22:29;;;;;;;;;;;18.60;99.90;;;;;;4977451;28;20000;-76
2023/08/08 12:24:54;;;;;;;;;;;18.50;99.90;;;;;;4977430;28;19929;-78
2023/08/08 12:27:20;;;;;;;;;;;18.40;99.90;;;;;;4994903;28;19922;-78
2023/08/08 12:29:46;;;;;;;;;;;18.40;99.90;;;;;;4978063;28;19933;-77
2023/08/08 12:32:12;;;;;;;;;;;18.30;99.90;;;;;;4995523;28;19921;-78
2023/08/08 12:34:37;;;;;;;;;;;18.40;99.90;;;;;;4977510;28;19922;-79
2023/08/08 12:37:03;;;;;;;;;;;18.40;99.90;;;;;;4977581;28;19961;-79
2023/08/08 12:39:29;;;;;;;;;;;18.50;99.90;;;;;;4994767;28;19921;-76
2023/08/08 12:41:54;;;;;;;;;;;18.70;99.90;;;;;;4994978;28;20005;-74
2023/08/08 12:44:20;;;;;;;;;;;18.70;99.90;;;;;;4977202;28;19979;-74
2023/08/08 12:46:45;;;;;;;;;;;18.70;99.90;;;;;;4977186;28;19936;-75
2023/08/08 12:49:11;;;;;;;;;;;18.70;99.90;;;;;;4994439;28;19954;-77
2023/08/08 12:51:37;;;;;;;;;;;18.70;99.90;;;;;;4977046;28;19929;-75
2023/08/08 12:54:03;;;;;;;;;;;18.70;99.90;;;;;;4976965;28;19922;-77
2023/08/08 12:56:28;;;;;;;;;;;18.80;99.90;;;;;;4995044;28;20293;-75
2023/08/08 12:58:54;;;;;;;;;;;18.90;99.90;;;;;;4977555;28;19922;-79
2023/08/08 13:01:19;;;;;;;;;;;18.80;99.90;;;;;;4994581;28;19926;-75
2023/08/08 13:03:45;;;;;;;;;;;18.90;99.90;;;;;;4994781;28;19926;-74
2023/08/08 13:06:11;;;;;;;;;;;18.90;99.90;;;;;;4976953;28;19929;-78
2023/08/08 13:08:37;;;;;;;;;;;18.70;99.90;;;;;;4976870;28;19926;-76
2023/08/08 13:11:03;;;;;;;;;;;18.50;99.90;;;;;;4977318;28;19922;-72
2023/08/08 13:13:28;;;;;;;;;;;18.60;99.90;;;;;;4994256;28;19922;-75
2023/08/08 13:15:54;;;;;;;;;;;18.50;99.90;;;;;;4976851;28;19922;-78
2023/08/08 13:18:19;;;;;;;;;;;18.60;99.90;;;;;;4994548;28;20004;-73
2023/08/08 13:20:45;;;;;;;;;;;18.60;99.90;;;;;;4976709;28;20357;-75
2023/08/08 13:23:10;;;;;;;;;;;18.60;99.90;;;;;;4994834;28;19922;-78
2023/08/08 13:25:36;;;;;;;;;;;18.80;99.90;;;;;;4977215;28;20281;-77
2023/08/08 13:28:02;;;;;;;;;;;18.80;99.90;;;;;;4977777;28;20350;-76
2023/08/08 13:30:28;;;;;;;;;;;18.80;99.90;;;;;;4994397;28;20330;-76
2023/08/08 13:32:54;;;;;;;;;;;18.80;99.90;;;;;;4976800;28;19968;-76
2023/08/08 13:35:19;;;;;;;;;;;18.60;99.90;;;;;;4976798;28;19921;-73
2023/08/08 13:37:49;;;;;;;;;;;18.60;99.90;;;;;;4994534;28;20023;-76
2023/08/08 13:40:15;;;;;;;;;;;18.60;99.90;;;;;;4977070;28;19925;-75
2023/08/08 13:42:40;;;;;;;;;;;18.70;99.90;;;;;;4976613;28;20396;-72
2023/08/08 13:45:06;;;;;;;;;;;18.70;99.90;;;;;;4993919;28;19922;-76
2023/08/08 13:47:32;;;;;;;;;;;18.70;99.90;;;;;;4976506;28;20024;-75
2023/08/08 13:49:57;;;;;;;;;;;18.60;99.90;;;;;;4993875;28;19950;-77
2023/08/08 13:52:24;;;;;;;;;;;18.40;99.90;;;;;;4976783;28;20298;-76
2023/08/08 13:54:49;;;;;;;;;;;18.20;99.90;;;;;;4994015;28;19926;-74
2023/08/08 13:57:15;;;;;;;;;;;18.10;99.90;;;;;;4997359;28;19925;-76
2023/08/08 13:59:40;;;;;;;;;;;17.90;99.90;;;;;;4980347;28;19944;-73
2023/08/08 14:02:06;;;;;;;;;;;17.80;99.90;;;;;;4980310;28;20279;-75
2023/08/08 14:04:31;;;;;;;;;;;17.70;99.90;;;;;;4980373;28;20436;-76
2023/08/08 14:06:57;;;;;;;;;;;17.80;99.90;;;;;;4980052;28;19965;-74
2023/08/08 14:09:22;;;;;;;;;;;17.70;99.90;;;;;;4997921;28;19977;-75
2023/08/08 14:11:48;;;;;;;;;;;17.60;99.90;;;;;;4980127;28;19922;-77
2023/08/08 14:14:13;;;;;;;;;;;17.60;99.90;;;;;;4980108;28;19922;-73
2023/08/08 14:16:39;;;;;;;;;;;17.60;99.90;;;;;;4980132;28;20382;-76
2023/08/08 14:19:05;;;;;;;;;;;17.50;99.90;;;;;;4979687;28;20013;-75
2023/08/08 14:21:30;;;;;;;;;;;17.50;99.90;;;;;;4979727;28;19922;-75
2023/08/08 14:23:56;;;;;;;;;;;17.40;99.90;;;;;;4980073;28;19926;-75
2023/08/08 14:26:21;;;;;;;;;;;17.30;99.90;;;;;;4979790;28;19928;-75
2023/08/08 14:28:47;;;;;;;;;;;17.30;99.90;;;;;;4979658;28;20388;-76
2023/08/08 14:31:12;;;;;;;;;;;17.40;99.90;;;;;;4979407;28;19985;-71
2023/08/08 14:33:38;;;;;;;;;;;17.50;99.90;;;;;;4979822;28;19926;-77
2023/08/08 14:36:04;;;;;;;;;;;17.50;99.90;;;;;;4979752;28;20377;-76
2023/08/08 14:38:34;;;;;;;;;;;17.80;99.90;;;;;;4979865;28;19933;-73
2023/08/08 14:40:59;;;;;;;;;;;18.00;99.90;;;;;;4979275;28;19922;-74
2023/08/08 14:43:25;;;;;;;;;;;18.00;99.90;;;;;;4979416;28;20006;-76
2023/08/08 14:45:51;;;;;;;;;;;18.00;99.90;;;;;;4979240;28;19922;-75
2023/08/08 14:48:17;;;;;;;;;;;18.10;99.90;;;;;;4997411;28;20024;-78
2023/08/08 14:50:42;;;;;;;;;;;18.20;99.90;;;;;;4979316;28;20012;-74
2023/08/08 14:53:08;;;;;;;;;;;18.30;99.90;;;;;;4996869;28;20370;-76
2023/08/08 14:55:33;;;;;;;;;;;18.40;99.90;;;;;;4979204;28;20025;-78
2023/08/08 14:57:59;;;;;;;;;;;18.40;99.90;;;;;;4979074;28;19929;-73
2023/08/08 15:00:24;;;;;;;;;;;18.50;99.90;;;;;;4978647;28;19993;-79
2023/08/08 15:02:50;;;;;;;;;;;18.40;99.90;;;;;;4996333;28;19923;-77
2023/08/08 15:05:15;;;;;;;;;;;18.30;99.90;;;;;;4978855;28;19922;-76
2023/08/08 15:07:41;;;;;;;;;;;18.20;99.90;;;;;;4977973;28;19921;-77
2023/08/08 15:10:07;;;;;;;;;;;18.10;99.90;;;;;;4978740;28;19928;-77
2023/08/08 15:12:32;;;;;;;;;;;18.10;99.90;;;;;;4978715;28;20012;-73
2023/08/08 15:14:58;;;;;;;;;;;18.10;99.90;;;;;;4979638;28;19998;-76
2023/08/08 15:17:23;;;;;;;;;;;18.00;99.90;;;;;;4996091;28;20313;-76
2023/08/08 15:19:49;;;;;;;;;;;18.00;99.90;;;;;;4996027;28;19922;-73
2023/08/08 15:22:15;;;;;;;;;;;17.90;99.90;;;;;;4975279;28;19941;-73
2023/08/08 15:24:40;;;;;;;;;;;17.90;99.90;;;;;;4982473;28;19950;-77
2023/08/08 15:27:06;;;;;;;;;;;18.00;99.90;;;;;;4959111;28;20327;-76
2023/08/08 15:29:31;;;;;;;;;;;18.10;99.90;;;;;;4959168;28;19927;-77
2023/08/08 15:32:04;;;;;;;;;;;18.10;99.90;;;;;;4959499;28;20510;-75
2023/08/08 15:34:29;;;;;;;;;;;18.20;99.90;;;;;;4976650;28;20430;-76
2023/08/08 15:36:58;;;;;;;;;;;18.40;99.90;;;;;;4976798;28;19958;-77
2023/08/08 15:39:23;;;;;;;;;;;18.40;99.90;;;;;;4959379;28;20370;-75
2023/08/08 15:41:49;;;;;;;;;;;18.30;99.90;;;;;;4976345;28;19922;-76
2023/08/08 15:44:15;;;;;;;;;;;18.10;99.90;;;;;;4959112;28;20009;-80
2023/08/08 15:46:40;;;;;;;;;;;18.20;99.90;;;;;;4958857;28;20378;-77
2023/08/08 15:49:12;;;;;;;;;;;18.30;99.90;;;;;;4958791;28;19932;-76
2023/08/08 15:51:39;;;;;;;;;;;18.30;99.90;;;;;;4959337;28;20311;-76
2023/08/08 15:54:05;;;;;;;;;;;18.40;99.90;;;;;;4958686;28;20421;-75
2023/08/08 15:56:30;;;;;;;;;;;18.40;99.90;;;;;;4969462;28;20393;-78
2023/08/08 15:58:57;;;;;;;;;;;18.20;99.90;;;;;;4974634;28;19922;-77
2023/08/08 16:01:23;;;;;;;;;;;18.10;99.90;;;;;;4975688;28;20062;-74
2023/08/08 16:03:48;;;;;;;;;;;18.10;99.90;;;;;;4974703;28;19978;-73
2023/08/08 16:06:14;;;;;;;;;;;18.00;99.90;;;;;;4974481;28;20009;-79
2023/08/08 16:08:39;;;;;;;;;;;18.10;99.90;;;;;;4958559;28;19933;-76
2023/08/08 16:11:05;;;;;;;;;;;18.10;99.90;;;;;;4974344;28;19930;-76
2023/08/08 16:13:30;;;;;;;;;;;18.10;99.90;;;;;;4974521;28;19994;-73
2023/08/08 16:15:56;;;;;;;;;;;18.10;99.90;;;;;;4976078;28;19961;-76
2023/08/08 16:18:21;;;;;;;;;;;18.10;99.90;;;;;;4973985;28;19929;-78
2023/08/08 16:20:47;;;;;;;;;;;18.00;99.90;;;;;;4974430;28;20289;-77
2023/08/08 16:23:12;;;;;;;;;;;17.90;99.90;;;;;;4974422;28;19922;-77
2023/08/08 16:25:38;;;;;;;;;;;17.70;99.90;;;;;;4974817;28;20353;-77
2023/08/08 16:28:04;;;;;;;;;;;17.80;99.90;;;;;;4974074;28;20397;-74
2023/08/08 16:30:29;;;;;;;;;;;17.80;99.90;;;;;;4974272;28;19929;-77
2023/08/08 16:32:55;;;;;;;;;;;17.80;99.90;;;;;;4974252;28;20370;-76
2023/08/08 16:35:20;;;;;;;;;;;18.00;99.90;;;;;;4973980;28;20271;-77
2023/08/08 16:37:46;;;;;;;;;;;18.10;99.90;;;;;;4975275;28;19929;-76
2023/08/08 16:40:12;;;;;;;;;;;18.10;99.90;;;;;;4974109;28;19945;-78
2023/08/08 16:42:37;;;;;;;;;;;18.10;99.90;;;;;;4973977;28;19965;-78
2023/08/08 16:45:04;;;;;;;;;;;18.10;99.90;;;;;;4975182;28;20002;-76
2023/08/08 16:47:29;;;;;;;;;;;18.00;99.90;;;;;;4957913;28;19922;-77
2023/08/08 16:49:55;;;;;;;;;;;17.90;99.90;;;;;;4973732;28;19930;-77
2023/08/08 16:52:20;;;;;;;;;;;17.80;99.90;;;;;;4973752;28;19922;-77
2023/08/08 16:54:46;;;;;;;;;;;17.80;99.90;;;;;;4973763;28;19922;-76
2023/08/08 16:57:11;;;;;;;;;;;17.80;99.90;;;;;;4973686;28;19971;-77
2023/08/08 16:59:37;;;;;;;;;;;17.70;99.90;;;;;;4973730;28;19922;-76
2023/08/08 17:02:03;;;;;;;;;;;17.70;99.90;;;;;;4973451;28;19922;-76
2023/08/08 17:04:28;;;;;;;;;;;17.60;99.90;;;;;;4975614;28;19929;-78
2023/08/08 17:06:54;;;;;;;;;;;17.60;99.90;;;;;;4975184;28;19922;-77
2023/08/08 17:09:19;;;;;;;;;;;17.60;99.90;;;;;;4974665;28;19926;-77